createdAt,value
2022-08-11T00:02:28.466Z,1.85
2022-08-11T00:05:03.116Z,1.13
2022-08-11T00:07:31.503Z,1.40
2022-08-11T00:10:00.535Z,1.25
2022-08-11T00:12:29.511Z,1.48
2022-08-11T00:14:59.783Z,1.40
2022-08-11T00:17:30.383Z,1.35
2022-08-11T00:20:12.077Z,1.40
2022-08-11T00:22:46.683Z,1.30
2022-08-11T00:25:17.127Z,1.50
2022-08-11T00:27:45.798Z,1.30
2022-08-11T00:30:14.696Z,1.50
2022-08-11T00:32:45.647Z,1.55
2022-08-11T00:35:51.692Z,1.50
2022-08-11T00:38:08.492Z,1.02
2022-08-11T00:40:45.237Z,1.33
2022-08-11T00:43:23.495Z,1.27
2022-08-11T00:46:12.634Z,1.40
2022-08-11T00:48:50.415Z,1.25
2022-08-11T00:52:04.595Z,1.55
2022-08-11T00:54:40.643Z,1.50
2022-08-11T00:57:35.973Z,1.35
2022-08-11T01:00:17.080Z,1.60
2022-08-11T01:03:19.388Z,1.35
2022-08-11T01:06:08.048Z,1.60
2022-08-11T01:08:59.691Z,1.38
2022-08-11T01:11:56.267Z,1.65
2022-08-11T01:14:54.623Z,1.55
2022-08-11T01:17:59.076Z,1.20
2022-08-11T01:21:01.027Z,1.27
2022-08-11T01:24:21.634Z,1.40
2022-08-11T01:27:31.007Z,1.42
2022-08-11T01:30:15.263Z,1.23
2022-08-11T01:33:06.235Z,1.40
2022-08-11T01:36:17.746Z,1.50
2022-08-11T01:39:19.148Z,1.70
2022-08-11T01:42:41.690Z,1.60
2022-08-11T01:45:30.996Z,1.50
2022-08-11T01:48:06.211Z,1.33
2022-08-11T01:51:03.370Z,1.67
2022-08-11T01:53:40.205Z,1.70
2022-08-11T01:56:36.811Z,1.58
2022-08-11T01:59:15.527Z,1.40
2022-08-11T02:02:05.408Z,1.60
2022-08-11T02:04:37.691Z,1.35
2022-08-11T02:07:18.066Z,1.38
2022-08-11T02:09:57.484Z,1.45
2022-08-11T02:12:52.288Z,1.77
2022-08-11T02:15:28.188Z,1.70
2022-08-11T02:18:05.250Z,1.40
2022-08-11T02:20:56.296Z,1.70
2022-08-11T02:24:05.205Z,1.85
2022-08-11T02:26:37.427Z,1.55
2022-08-11T02:29:15.528Z,1.77
2022-08-11T02:32:24.895Z,1.90
2022-08-11T02:35:24.536Z,1.40
2022-08-11T02:38:07.678Z,1.90
2022-08-11T02:40:51.446Z,2.05
2022-08-11T02:43:30.185Z,1.83
2022-08-11T02:46:18.799Z,1.67
2022-08-11T02:49:17.274Z,1.80
2022-08-11T02:52:01.276Z,2.13
2022-08-11T02:54:39.173Z,1.77
2022-08-11T02:57:17.532Z,1.55
2022-08-11T02:59:53.825Z,2.17
2022-08-11T03:02:48.437Z,1.83
2022-08-11T03:05:28.240Z,1.65
2022-08-11T03:08:18.649Z,1.60
2022-08-11T03:11:14.890Z,1.85
2022-08-11T03:14:08.097Z,1.77
2022-08-11T03:16:48.430Z,1.90
2022-08-11T03:19:26.517Z,2.00
2022-08-11T03:22:06.622Z,1.95
2022-08-11T03:24:48.286Z,2.33
2022-08-11T03:27:34.551Z,1.90
2022-08-11T03:30:14.892Z,1.98
2022-08-11T03:33:10.585Z,2.20
2022-08-11T03:35:45.621Z,2.30
2022-08-11T03:38:17.031Z,2.20
2022-08-11T03:42:01.646Z,2.53
2022-08-11T03:44:19.827Z,1.92
2022-08-11T03:47:18.390Z,2.00
2022-08-11T03:50:03.142Z,1.75
2022-08-11T03:52:45.224Z,1.98
2022-08-11T03:55:22.023Z,2.13
2022-08-11T03:58:22.425Z,2.00
2022-08-11T04:01:09.060Z,2.30
2022-08-11T04:04:17.471Z,2.15
2022-08-11T04:07:17.564Z,2.28
2022-08-11T04:10:12.393Z,2.15
2022-08-11T04:13:11.276Z,2.28
2022-08-11T04:16:11.065Z,2.22
2022-08-11T04:19:28.898Z,2.20
2022-08-11T04:22:33.323Z,2.17
2022-08-11T04:25:23.281Z,2.60
2022-08-11T04:28:28.965Z,2.40
2022-08-11T04:31:08.263Z,2.30
2022-08-11T04:34:08.004Z,2.67
2022-08-11T04:37:02.306Z,2.75
2022-08-11T04:39:50.348Z,2.20
2022-08-11T04:43:22.980Z,2.50
2022-08-11T04:46:18.710Z,2.35
2022-08-11T04:49:33.625Z,2.53
2022-08-11T04:52:52.716Z,2.65
2022-08-11T04:56:21.301Z,2.10
2022-08-11T04:59:19.296Z,2.60
2022-08-11T05:02:17.033Z,2.67
2022-08-11T05:05:21.976Z,2.63
2022-08-11T05:08:42.817Z,3.47
2022-08-11T05:11:31.829Z,2.85
2022-08-11T05:14:44.100Z,2.80
2022-08-11T05:17:33.526Z,2.63
2022-08-11T05:20:19.841Z,2.63
2022-08-11T05:23:08.410Z,3.53
2022-08-11T05:26:43.420Z,2.97
2022-08-11T05:29:20.125Z,2.90
2022-08-11T05:32:17.623Z,3.10
2022-08-11T05:34:53.409Z,3.63
2022-08-11T05:37:27.690Z,3.20
2022-08-11T05:40:19.763Z,3.17
2022-08-11T05:43:09.032Z,3.78
2022-08-11T05:46:04.684Z,3.20
2022-08-11T05:48:53.912Z,3.33
2022-08-11T05:51:51.918Z,3.97
2022-08-11T05:54:41.730Z,3.25
2022-08-11T05:57:49.904Z,3.40
2022-08-11T06:00:01.116Z,3.10
2022-08-11T06:02:31.281Z,3.20
2022-08-11T06:05:01.981Z,3.45
2022-08-11T06:07:48.723Z,3.72
2022-08-11T06:10:28.624Z,3.03
2022-08-11T06:12:58.298Z,3.13
2022-08-11T06:15:27.409Z,3.08
2022-08-11T06:17:58.692Z,3.33
2022-08-11T06:20:27.134Z,3.08
2022-08-11T06:23:03.651Z,3.42
2022-08-11T06:25:33.122Z,3.10
2022-08-11T06:28:01.524Z,3.17
2022-08-11T06:30:36.231Z,3.22
2022-08-11T06:33:09.193Z,3.60
2022-08-11T06:35:46.834Z,2.88
2022-08-11T06:38:32.586Z,3.53
2022-08-11T06:41:18.499Z,3.38
2022-08-11T06:43:55.766Z,2.95
2022-08-11T06:46:30.544Z,3.10
2022-08-11T06:49:03.585Z,3.22
2022-08-11T06:51:32.630Z,2.90
2022-08-11T06:54:04.754Z,3.10
2022-08-11T06:57:28.214Z,3.10
2022-08-11T07:00:02.077Z,3.20
2022-08-11T07:02:35.029Z,3.40
2022-08-11T07:05:09.534Z,3.20
2022-08-11T07:08:48.416Z,3.22
2022-08-11T07:12:07.181Z,3.47
2022-08-11T07:15:00.061Z,3.42
2022-08-11T07:20:17.363Z,3.55
2022-08-11T07:23:12.099Z,3.00
2022-08-11T07:26:00.399Z,3.13
2022-08-11T07:28:48.162Z,2.90
2022-08-11T07:31:23.160Z,2.85
2022-08-11T07:34:05.007Z,2.88
2022-08-11T07:36:42.784Z,3.50
2022-08-11T07:39:21.008Z,3.17
2022-08-11T07:41:50.903Z,3.25
2022-08-11T07:44:19.842Z,3.10
2022-08-11T07:47:08.022Z,2.92
2022-08-11T07:49:55.272Z,3.05
2022-08-11T07:52:32.425Z,2.88
2022-08-11T07:55:04.055Z,2.67
2022-08-11T07:58:15.824Z,2.88
2022-08-11T08:01:01.650Z,2.88
2022-08-11T08:03:54.496Z,2.85
2022-08-11T08:06:41.305Z,2.35
2022-08-11T08:09:27.588Z,2.85
2022-08-11T08:12:15.116Z,2.92
2022-08-11T08:15:01.291Z,2.90
2022-08-11T08:18:09.548Z,2.78
2022-08-11T08:20:38.930Z,2.85
2022-08-11T08:23:08.105Z,2.65
2022-08-11T08:25:39.248Z,2.88
2022-08-11T08:28:11.548Z,2.63
2022-08-11T08:30:48.116Z,2.45
2022-08-11T08:33:20.527Z,2.25
2022-08-11T08:35:54.034Z,2.50
2022-08-11T08:38:22.925Z,2.35
2022-08-11T08:40:56.577Z,2.20
2022-08-11T08:43:26.729Z,2.47
2022-08-11T08:45:57.154Z,2.55
2022-08-11T08:48:27.658Z,2.00
2022-08-11T08:51:21.870Z,2.28
2022-08-11T08:53:56.637Z,2.20
2022-08-11T08:56:29.455Z,2.30
2022-08-11T08:59:02.062Z,2.33
2022-08-11T09:01:33.416Z,2.30
2022-08-11T09:04:09.162Z,2.45
2022-08-11T09:06:42.949Z,2.70
2022-08-11T09:09:13.203Z,2.78
2022-08-11T09:11:53.476Z,2.10
2022-08-11T09:14:25.373Z,3.38
2022-08-11T09:16:54.733Z,2.05
2022-08-11T09:19:24.979Z,2.40
2022-08-11T09:22:13.432Z,1.75
2022-08-11T09:24:59.112Z,2.65
2022-08-11T09:27:28.423Z,2.15
2022-08-11T09:29:58.162Z,2.00
2022-08-11T09:32:28.840Z,2.33
2022-08-11T09:34:58.993Z,2.08
2022-08-11T09:37:55.213Z,2.28
2022-08-11T09:40:33.651Z,2.03
2022-08-11T09:43:21.985Z,2.22
2022-08-11T09:45:53.718Z,2.20
2022-08-11T09:48:22.942Z,2.20
2022-08-11T09:50:53.306Z,2.22
2022-08-11T09:53:37.332Z,2.15
2022-08-11T09:56:30.343Z,2.00
2022-08-11T09:58:59.899Z,2.22
2022-08-11T10:01:35.625Z,1.90
2022-08-11T10:04:10.003Z,1.80
2022-08-11T10:06:57.804Z,2.13
2022-08-11T10:09:27.390Z,1.92
2022-08-11T10:11:59.869Z,1.92
2022-08-11T10:14:46.626Z,2.38
2022-08-11T10:17:19.832Z,2.20
2022-08-11T10:20:03.946Z,2.00
2022-08-11T10:22:51.235Z,2.53
2022-08-11T10:25:37.222Z,2.10
2022-08-11T10:28:30.481Z,2.30
2022-08-11T10:31:15.079Z,2.50
2022-08-11T10:34:03.344Z,2.30
2022-08-11T10:36:33.712Z,2.03
2022-08-11T10:39:03.794Z,2.15
2022-08-11T10:42:08.550Z,2.30
2022-08-11T10:44:41.130Z,2.10
2022-08-11T10:47:28.927Z,2.35
2022-08-11T10:50:16.554Z,2.70
2022-08-11T10:53:05.172Z,2.50
2022-08-11T10:55:51.028Z,4.30
2022-08-11T10:58:37.270Z,9.02
2022-08-11T11:01:05.999Z,4.18
2022-08-11T11:03:36.724Z,4.82
2022-08-11T11:06:27.319Z,4.78
2022-08-11T11:09:04.477Z,2.13
2022-08-11T11:11:55.921Z,2.20
2022-08-11T11:14:50.722Z,2.25
2022-08-11T11:17:45.357Z,2.08
2022-08-11T11:20:36.918Z,2.50
2022-08-11T11:23:11.311Z,2.00
2022-08-11T11:26:07.385Z,2.50
2022-08-11T11:29:01.508Z,2.33
2022-08-11T11:31:37.340Z,2.00
2022-08-11T11:34:29.419Z,2.58
2022-08-11T11:36:59.327Z,2.27
2022-08-11T11:39:31.267Z,2.03
2022-08-11T11:42:03.122Z,5.65
2022-08-11T11:44:33.092Z,2.22
2022-08-11T11:47:02.959Z,2.60
2022-08-11T11:49:32.618Z,2.80
2022-08-11T11:52:01.830Z,2.50
2022-08-11T11:54:33.927Z,2.78
2022-08-11T11:57:25.693Z,2.20
2022-08-11T12:00:12.887Z,1.67
2022-08-11T12:02:43.034Z,2.90
2022-08-11T12:05:11.920Z,5.53
2022-08-11T12:08:13.198Z,3.45
2022-08-11T12:10:46.149Z,2.35
2022-08-11T12:13:32.683Z,2.00
2022-08-11T12:16:33.793Z,2.20
2022-08-11T12:18:54.534Z,3.15
2022-08-11T12:21:24.499Z,2.80
2022-08-11T12:24:11.253Z,1.98
2022-08-11T12:27:16.550Z,1.90
2022-08-11T12:29:54.512Z,2.30
2022-08-11T12:32:25.601Z,1.90
2022-08-11T12:34:58.030Z,1.88
2022-08-11T12:37:31.347Z,1.92
2022-08-11T12:40:49.525Z,2.03
2022-08-11T12:43:37.754Z,2.42
2022-08-11T12:46:11.067Z,4.57
2022-08-11T12:49:04.011Z,1.67
2022-08-11T12:52:11.528Z,1.80
2022-08-11T12:54:51.785Z,1.58
2022-08-11T12:57:44.204Z,1.63
2022-08-11T13:00:32.674Z,2.25
2022-08-11T13:03:19.585Z,2.03
2022-08-11T13:05:49.626Z,2.00
2022-08-11T13:08:18.717Z,1.85
2022-08-11T13:11:05.183Z,1.90
2022-08-11T13:13:53.887Z,2.00
2022-08-11T13:16:24.619Z,1.63
2022-08-11T13:18:53.648Z,1.90
2022-08-11T13:21:23.677Z,1.80
2022-08-11T13:24:01.629Z,1.90
2022-08-11T13:26:47.466Z,1.60
2022-08-11T13:29:20.278Z,2.10
2022-08-11T13:31:51.117Z,1.80
2022-08-11T13:34:20.649Z,1.55
2022-08-11T13:36:52.213Z,1.80
2022-08-11T13:39:24.764Z,1.90
2022-08-11T13:41:57.061Z,2.67
2022-08-11T13:44:28.418Z,1.67
2022-08-11T13:47:02.386Z,2.72
2022-08-11T13:49:31.689Z,2.10
2022-08-11T13:52:01.231Z,1.77
2022-08-11T13:54:33.131Z,2.08
2022-08-11T13:57:09.155Z,1.80
2022-08-11T13:59:51.703Z,1.67
2022-08-11T14:02:30.618Z,1.58
2022-08-11T14:05:04.380Z,1.63
2022-08-11T14:07:39.279Z,1.65
2022-08-11T14:10:10.265Z,1.67
2022-08-11T14:12:56.954Z,1.67
2022-08-11T14:15:29.156Z,1.55
2022-08-11T14:18:05.233Z,1.57
2022-08-11T14:20:59.242Z,1.60
2022-08-11T14:23:30.459Z,1.67
2022-08-11T14:26:16.633Z,1.25
2022-08-11T14:28:45.634Z,1.42
2022-08-11T14:31:16.047Z,1.98
2022-08-11T14:34:00.168Z,1.73
2022-08-11T14:36:33.919Z,1.58
2022-08-11T14:39:06.785Z,1.67
2022-08-11T14:42:11.715Z,1.52
2022-08-11T14:45:01.983Z,1.40
2022-08-11T14:47:32.730Z,1.65
2022-08-11T14:50:11.128Z,1.52
2022-08-11T14:52:43.943Z,1.50
2022-08-11T14:55:30.850Z,1.50
2022-08-11T14:58:00.142Z,1.30
2022-08-11T15:00:28.722Z,1.30
2022-08-11T15:03:12.249Z,1.13
2022-08-11T15:05:55.747Z,1.75
2022-08-11T15:08:47.174Z,1.05
2022-08-11T15:11:34.396Z,1.30
2022-08-11T15:14:05.822Z,1.40
2022-08-11T15:16:51.767Z,1.98
2022-08-11T15:19:22.047Z,1.30
2022-08-11T15:22:09.503Z,1.55
2022-08-11T15:24:38.413Z,1.10
2022-08-11T15:27:30.059Z,1.23
2022-08-11T15:30:29.892Z,1.33
2022-08-11T15:33:22.972Z,1.30
2022-08-11T15:36:09.659Z,1.20
2022-08-11T15:38:43.872Z,1.48
2022-08-11T15:41:34.362Z,1.80
2022-08-11T15:44:58.764Z,1.48
2022-08-11T15:47:21.434Z,1.05
2022-08-11T15:50:11.390Z,1.10
2022-08-11T15:52:48.519Z,1.92
2022-08-11T15:55:19.603Z,1.33
2022-08-11T15:58:07.752Z,1.35
2022-08-11T16:01:02.680Z,1.08
2022-08-11T16:04:08.221Z,0.85
2022-08-11T16:06:44.816Z,1.20
2022-08-11T16:09:22.191Z,1.25
2022-08-11T16:11:53.694Z,1.15
2022-08-11T16:14:41.523Z,1.80
2022-08-11T16:17:12.617Z,1.00
2022-08-11T16:19:43.947Z,1.20
2022-08-11T16:22:14.063Z,1.23
2022-08-11T16:27:06.117Z,1.23
2022-08-11T16:27:40.242Z,1.20
2022-08-11T16:30:10.279Z,0.73
2022-08-11T16:32:41.183Z,0.82
2022-08-11T16:35:29.516Z,1.10
2022-08-11T16:38:30.982Z,1.63
2022-08-11T16:41:01.074Z,2.20
2022-08-11T16:43:50.202Z,0.93
2022-08-11T16:46:37.692Z,1.20
2022-08-11T16:49:08.752Z,1.42
2022-08-11T16:51:37.661Z,1.15
2022-08-11T16:54:06.469Z,1.08
2022-08-11T16:56:38.072Z,0.98
2022-08-11T16:59:16.692Z,1.23
2022-08-11T17:01:51.778Z,1.35
2022-08-11T17:04:45.926Z,1.20
2022-08-11T17:07:40.724Z,1.15
2022-08-11T17:10:50.950Z,1.17
2022-08-11T17:13:27.848Z,1.20
2022-08-11T17:16:12.200Z,1.20
2022-08-11T17:18:55.810Z,1.10
2022-08-11T17:21:27.454Z,0.88
2022-08-11T17:23:59.001Z,1.30
2022-08-11T17:26:46.873Z,1.20
2022-08-11T17:29:15.686Z,1.05
2022-08-11T17:32:05.260Z,1.05
2022-08-11T17:34:51.550Z,1.20
2022-08-11T17:37:21.269Z,1.52
2022-08-11T17:39:51.096Z,1.30
2022-08-11T17:42:37.848Z,1.40
2022-08-11T17:45:25.353Z,1.35
2022-08-11T17:48:14.640Z,1.33
2022-08-11T17:50:43.665Z,2.13
2022-08-11T17:53:31.260Z,1.65
2022-08-11T17:56:18.077Z,1.80
2022-08-11T17:59:05.789Z,1.42
2022-08-11T18:01:35.519Z,1.50
2022-08-11T18:04:07.144Z,1.20
2022-08-11T18:06:37.268Z,1.20
2022-08-11T18:09:27.080Z,1.38
2022-08-11T18:12:14.953Z,1.33
2022-08-11T18:15:03.857Z,1.67
2022-08-11T18:17:49.652Z,1.50
2022-08-11T18:20:37.688Z,2.15
2022-08-11T18:23:45.575Z,2.30
2022-08-11T18:26:36.266Z,1.95
2022-08-11T18:29:24.835Z,2.55
2022-08-11T18:32:12.638Z,1.67
2022-08-11T18:35:11.188Z,2.22
2022-08-11T18:38:05.648Z,1.77
2022-08-11T18:40:54.224Z,1.92
2022-08-11T18:43:42.857Z,2.13
2022-08-11T18:46:31.583Z,1.67
2022-08-11T18:49:22.412Z,1.60
2022-08-11T18:52:11.380Z,1.48
2022-08-11T18:55:01.824Z,1.85
2022-08-11T18:57:54.016Z,1.60
2022-08-11T19:00:41.929Z,1.47
2022-08-11T19:03:30.213Z,1.38
2022-08-11T19:06:39.743Z,1.50
2022-08-11T19:09:28.634Z,1.65
2022-08-11T19:12:17.380Z,1.80
2022-08-11T19:15:04.570Z,1.40
2022-08-11T19:17:53.793Z,1.45
2022-08-11T19:20:44.172Z,1.45
2022-08-11T19:23:34.153Z,1.45
2022-08-11T19:26:21.384Z,1.90
2022-08-11T19:30:05.180Z,1.52
2022-08-11T19:32:18.205Z,1.90
2022-08-11T19:35:04.531Z,1.40
2022-08-11T19:37:51.801Z,1.88
2022-08-11T19:40:38.481Z,2.03
2022-08-11T19:43:26.473Z,3.97
2022-08-11T19:46:17.251Z,1.90
2022-08-11T19:49:05.305Z,1.80
2022-08-11T19:51:54.078Z,1.80
2022-08-11T19:54:44.347Z,1.60
2022-08-11T19:57:34.536Z,1.75
2022-08-11T20:00:25.060Z,1.70
2022-08-11T20:03:17.635Z,1.60
2022-08-11T20:06:04.421Z,1.98
2022-08-11T20:08:55.144Z,1.77
2022-08-11T20:11:44.642Z,1.80
2022-08-11T20:14:31.806Z,1.70
2022-08-11T20:17:18.588Z,1.90
2022-08-11T20:20:07.405Z,2.33
2022-08-11T20:22:53.231Z,1.73
2022-08-11T20:25:42.087Z,2.38
2022-08-11T20:28:29.802Z,1.70
2022-08-11T20:31:15.737Z,1.77
2022-08-11T20:34:01.907Z,1.98
2022-08-11T20:36:52.529Z,1.80
2022-08-11T20:39:41.453Z,1.50
2022-08-11T20:42:30.455Z,1.75
2022-08-11T20:45:23.634Z,1.70
2022-08-11T20:48:14.938Z,1.70
2022-08-11T20:51:06.411Z,1.70
2022-08-11T20:53:56.219Z,1.80
2022-08-11T20:56:44.489Z,1.83
2022-08-11T20:59:33.289Z,1.52
2022-08-11T21:02:30.770Z,2.05
2022-08-11T21:05:19.308Z,1.58
2022-08-11T21:08:09.838Z,1.55
2022-08-11T21:11:03.099Z,1.70
2022-08-11T21:13:57.127Z,1.55
2022-08-11T21:16:47.511Z,1.50
2022-08-11T21:20:01.599Z,2.13
2022-08-11T21:22:59.417Z,1.40
2022-08-11T21:25:59.325Z,1.58
2022-08-11T21:28:48.239Z,1.55
2022-08-11T21:31:34.875Z,2.10
2022-08-11T21:34:21.725Z,2.10
2022-08-11T21:37:08.621Z,1.80
2022-08-11T21:39:54.755Z,1.90
2022-08-11T21:42:41.331Z,1.88
2022-08-11T21:45:29.940Z,1.88
2022-08-11T21:48:16.145Z,2.05
2022-08-11T21:51:02.039Z,2.10
2022-08-11T21:53:49.880Z,3.10
2022-08-11T21:56:36.656Z,1.67
2022-08-11T21:59:22.333Z,2.60
2022-08-11T22:02:12.773Z,3.08
2022-08-11T22:04:59.196Z,2.05
2022-08-11T22:07:44.863Z,2.10
2022-08-11T22:10:41.973Z,2.03
2022-08-11T22:13:29.940Z,1.75
2022-08-11T22:16:15.739Z,1.63
2022-08-11T22:19:03.939Z,1.70
2022-08-11T22:22:01.147Z,2.10
2022-08-11T22:24:51.737Z,2.20
2022-08-11T22:27:37.543Z,1.67
2022-08-11T22:30:24.794Z,1.80
2022-08-11T22:33:10.953Z,1.73
2022-08-11T22:36:00.131Z,1.67
2022-08-11T22:38:45.851Z,1.90
2022-08-11T22:41:31.779Z,1.95
2022-08-11T22:44:18.278Z,1.55
2022-08-11T22:47:04.871Z,1.90
2022-08-11T22:49:57.462Z,1.70
2022-08-11T22:52:46.989Z,1.80
2022-08-11T22:55:33.910Z,1.70
2022-08-11T22:58:20.709Z,1.90
2022-08-11T23:01:07.105Z,1.85
2022-08-11T23:03:53.993Z,1.83
2022-08-11T23:06:40.819Z,2.13
2022-08-11T23:09:27.720Z,1.75
2022-08-11T23:12:13.625Z,1.95
2022-08-11T23:15:00.397Z,1.70
2022-08-11T23:17:46.697Z,1.90
2022-08-11T23:20:42.167Z,2.05
2022-08-11T23:23:37.886Z,1.88
2022-08-11T23:26:25.639Z,2.03
2022-08-11T23:29:12.920Z,2.42
2022-08-11T23:31:59.299Z,2.05
2022-08-11T23:35:03.770Z,1.73
2022-08-11T23:37:57.336Z,2.00
2022-08-11T23:40:45.226Z,1.90
2022-08-11T23:43:39.786Z,2.13
2022-08-11T23:46:25.465Z,2.10
2022-08-11T23:49:14.838Z,1.80
2022-08-11T23:52:01.157Z,2.00
2022-08-11T23:54:47.812Z,2.33
2022-08-11T23:57:33.516Z,1.95
